createdAt,value
2017-04-10T00:00:06.614Z,0
2017-04-10T00:00:39.729Z,0
2017-04-10T00:01:12.048Z,0
2017-04-10T00:01:44.363Z,0
2017-04-10T00:02:16.670Z,0
2017-04-10T00:02:48.988Z,0
2017-04-10T00:03:21.311Z,0
2017-04-10T00:03:53.640Z,0
2017-04-10T00:04:25.955Z,0
2017-04-10T00:04:58.266Z,0
2017-04-10T00:05:30.597Z,0
2017-04-10T00:06:02.902Z,0
2017-04-10T00:06:35.220Z,0
2017-04-10T00:07:07.579Z,0
2017-04-10T00:07:39.937Z,0
2017-04-10T00:08:12.274Z,0
2017-04-10T00:08:44.589Z,0
2017-04-10T00:09:16.917Z,0
2017-04-10T00:09:49.227Z,0
2017-04-10T00:10:21.538Z,0
2017-04-10T00:10:53.862Z,0
2017-04-10T00:11:26.171Z,0
2017-04-10T00:11:58.479Z,0
2017-04-10T00:12:30.793Z,0
2017-04-10T00:13:03.111Z,0
2017-04-10T00:13:35.428Z,0
2017-04-10T00:14:07.741Z,0
2017-04-10T00:14:40.042Z,0
2017-04-10T00:15:12.343Z,0
2017-04-10T00:15:44.647Z,0
2017-04-10T00:16:16.956Z,0
2017-04-10T00:16:49.270Z,0
2017-04-10T00:17:21.582Z,0
2017-04-10T00:17:53.892Z,0
2017-04-10T00:18:26.211Z,0
2017-04-10T00:18:58.516Z,0
2017-04-10T00:19:30.817Z,0
2017-04-10T00:20:03.138Z,0
2017-04-10T00:20:35.454Z,0
2017-04-10T00:21:07.786Z,0
2017-04-10T00:21:40.103Z,0
2017-04-10T00:22:12.419Z,0
2017-04-10T00:22:44.747Z,0
2017-04-10T00:23:17.054Z,0
2017-04-10T00:23:49.373Z,0
2017-04-10T00:24:21.690Z,0
2017-04-10T00:24:53.999Z,0
2017-04-10T00:25:26.304Z,0
2017-04-10T00:25:58.622Z,0
2017-04-10T00:26:30.943Z,0
2017-04-10T00:27:03.253Z,0
2017-04-10T00:27:35.569Z,0
2017-04-10T00:28:07.891Z,0
2017-04-10T00:28:40.197Z,0
2017-04-10T00:29:12.506Z,0
2017-04-10T00:29:44.813Z,0
2017-04-10T00:30:17.127Z,0
2017-04-10T00:30:49.445Z,0
2017-04-10T00:31:21.776Z,0
2017-04-10T00:31:54.069Z,0
2017-04-10T00:32:26.371Z,0
2017-04-10T00:32:58.689Z,0
2017-04-10T00:33:30.997Z,0
2017-04-10T00:34:03.311Z,0
2017-04-10T00:34:35.621Z,0
2017-04-10T00:35:07.933Z,0
2017-04-10T00:35:40.246Z,0
2017-04-10T00:36:12.551Z,0
2017-04-10T00:36:44.856Z,0
2017-04-10T00:37:17.169Z,0
2017-04-10T00:37:49.478Z,0
2017-04-10T00:38:21.811Z,0
2017-04-10T00:38:54.132Z,0
2017-04-10T00:39:26.427Z,0
2017-04-10T00:39:58.738Z,0
2017-04-10T00:40:31.048Z,0
2017-04-10T00:41:03.354Z,0
2017-04-10T00:41:35.666Z,0
2017-04-10T00:42:07.994Z,0
2017-04-10T00:42:40.312Z,0
2017-04-10T00:43:12.613Z,0
2017-04-10T00:43:44.945Z,0
2017-04-10T00:44:17.264Z,0
2017-04-10T00:44:49.578Z,0
2017-04-10T00:45:21.887Z,0
2017-04-10T00:45:54.217Z,0
2017-04-10T00:46:26.545Z,0
2017-04-10T00:46:58.854Z,0
2017-04-10T00:47:31.159Z,0
2017-04-10T00:48:03.471Z,0
2017-04-10T00:48:35.791Z,0
2017-04-10T00:49:08.101Z,0
2017-04-10T00:49:40.417Z,0
2017-04-10T00:50:12.730Z,0
2017-04-10T00:50:45.041Z,0
2017-04-10T00:51:17.368Z,0
2017-04-10T00:51:49.685Z,0
2017-04-10T00:52:22.012Z,0
2017-04-10T00:52:54.318Z,0
2017-04-10T00:53:26.616Z,0
2017-04-10T00:53:58.935Z,0
2017-04-10T00:54:31.247Z,0
2017-04-10T00:55:03.549Z,0
2017-04-10T00:55:35.868Z,0
2017-04-10T00:56:08.175Z,0
2017-04-10T00:56:40.478Z,0
2017-04-10T00:57:12.780Z,0
2017-04-10T00:57:45.081Z,0
2017-04-10T00:58:17.391Z,0
2017-04-10T00:58:49.712Z,0
2017-04-10T00:59:22.045Z,0
2017-04-10T00:59:54.367Z,0
2017-04-10T01:00:26.680Z,0
2017-04-10T01:00:58.999Z,0
2017-04-10T01:01:31.320Z,0
2017-04-10T01:02:04.193Z,0
2017-04-10T01:02:36.440Z,0
2017-04-10T01:03:08.701Z,0
2017-04-10T01:03:40.955Z,0
2017-04-10T01:04:13.199Z,0
2017-04-10T01:04:45.433Z,0
2017-04-10T01:05:17.779Z,0
2017-04-10T01:05:50.035Z,0
2017-04-10T01:06:22.285Z,0
2017-04-10T01:06:54.536Z,0
2017-04-10T01:07:26.803Z,0
2017-04-10T01:07:59.056Z,0
2017-04-10T01:08:31.304Z,0
2017-04-10T01:09:04.124Z,0
2017-04-10T01:09:36.366Z,0
2017-04-10T01:10:08.656Z,0
2017-04-10T01:10:40.899Z,0
2017-04-10T01:11:13.146Z,0
2017-04-10T01:11:45.395Z,0
2017-04-10T01:12:18.233Z,0
2017-04-10T01:12:50.487Z,0
2017-04-10T01:13:22.738Z,0
2017-04-10T01:13:54.996Z,0
2017-04-10T01:14:27.252Z,0
2017-04-10T01:14:59.514Z,0
2017-04-10T01:15:31.915Z,0
2017-04-10T01:16:04.155Z,0
2017-04-10T01:16:36.427Z,0
2017-04-10T01:17:08.681Z,0
2017-04-10T01:17:41.606Z,0
2017-04-10T01:18:13.864Z,0
2017-04-10T01:18:46.132Z,0
2017-04-10T01:19:18.392Z,0
2017-04-10T01:19:50.691Z,0
2017-04-10T01:20:22.942Z,0
2017-04-10T01:20:55.192Z,0
2017-04-10T01:21:27.474Z,0
2017-04-10T01:21:59.765Z,0
2017-04-10T01:22:32.079Z,0
2017-04-10T01:23:04.388Z,0
2017-04-10T01:23:36.701Z,0
2017-04-10T01:24:09.011Z,0
2017-04-10T01:24:41.309Z,0
2017-04-10T01:25:13.603Z,0
2017-04-10T01:25:45.919Z,0
2017-04-10T01:26:18.227Z,0
2017-04-10T01:26:50.528Z,0
2017-04-10T01:27:22.838Z,0
2017-04-10T01:27:55.152Z,0
2017-04-10T01:28:27.478Z,0
2017-04-10T01:28:59.797Z,0
2017-04-10T01:29:32.117Z,0
2017-04-10T01:30:04.445Z,0
2017-04-10T01:30:36.762Z,0
2017-04-10T01:31:09.075Z,0
2017-04-10T01:31:41.386Z,0
2017-04-10T01:32:13.675Z,0
2017-04-10T01:32:45.932Z,0
2017-04-10T01:33:18.188Z,0
2017-04-10T01:33:50.437Z,0
2017-04-10T01:34:22.697Z,0
2017-04-10T01:34:54.949Z,0
2017-04-10T01:35:27.203Z,0
2017-04-10T01:35:59.446Z,0
2017-04-10T01:36:31.704Z,0
2017-04-10T01:37:03.945Z,0
2017-04-10T01:37:36.258Z,0
2017-04-10T01:38:08.511Z,0
2017-04-10T01:38:40.755Z,0
2017-04-10T01:39:13.034Z,0
2017-04-10T01:39:45.264Z,0
2017-04-10T01:40:17.578Z,0
2017-04-10T01:40:49.837Z,0
2017-04-10T01:41:22.140Z,0
2017-04-10T01:41:54.393Z,0
2017-04-10T01:42:26.640Z,0
2017-04-10T01:42:58.879Z,0
2017-04-10T01:43:31.125Z,0
2017-04-10T01:44:04.217Z,0
2017-04-10T01:44:36.575Z,0
2017-04-10T01:45:08.814Z,0
2017-04-10T01:45:41.066Z,0
2017-04-10T01:46:14.079Z,0
2017-04-10T01:46:46.322Z,0
2017-04-10T01:47:18.560Z,0
2017-04-10T01:47:50.809Z,0
2017-04-10T01:48:23.048Z,0
2017-04-10T01:48:55.300Z,0
2017-04-10T01:49:27.561Z,0
2017-04-10T01:49:59.852Z,0
2017-04-10T01:50:32.141Z,0
2017-04-10T01:51:04.400Z,0
2017-04-10T01:51:36.657Z,0
2017-04-10T01:52:08.938Z,0
2017-04-10T01:52:41.235Z,0
2017-04-10T01:53:13.550Z,0
2017-04-10T01:53:45.857Z,0
2017-04-10T01:54:18.155Z,0
2017-04-10T01:54:50.459Z,0
2017-04-10T01:55:22.759Z,0
2017-04-10T01:55:55.054Z,0
2017-04-10T01:56:27.359Z,0
2017-04-10T01:56:59.660Z,0
2017-04-10T01:57:31.972Z,0
2017-04-10T01:58:04.267Z,0
2017-04-10T01:58:36.555Z,0
2017-04-10T01:59:08.853Z,0
2017-04-10T01:59:41.147Z,0
2017-04-10T02:00:13.460Z,0
2017-04-10T02:00:45.760Z,0
2017-04-10T02:01:18.062Z,0
2017-04-10T02:01:50.365Z,0
2017-04-10T02:02:22.655Z,0
2017-04-10T02:02:54.954Z,0
2017-04-10T02:03:27.245Z,0
2017-04-10T02:03:59.560Z,0
2017-04-10T02:04:31.871Z,0
2017-04-10T02:05:04.175Z,0
2017-04-10T02:05:36.490Z,0
2017-04-10T02:06:08.802Z,0
2017-04-10T02:06:41.099Z,0
2017-04-10T02:07:13.400Z,0
2017-04-10T02:07:45.695Z,0
2017-04-10T02:08:17.979Z,0
2017-04-10T02:08:50.273Z,0
2017-04-10T02:09:22.581Z,0
2017-04-10T02:09:54.885Z,0
2017-04-10T02:10:27.195Z,0
2017-04-10T02:10:59.507Z,0
2017-04-10T02:11:31.805Z,0
2017-04-10T02:12:04.122Z,0
2017-04-10T02:12:36.425Z,0
2017-04-10T02:13:08.725Z,0
2017-04-10T02:13:41.020Z,0
2017-04-10T02:14:13.319Z,0
2017-04-10T02:14:45.647Z,0
2017-04-10T02:15:17.937Z,0
2017-04-10T02:15:50.242Z,0
2017-04-10T02:16:22.544Z,0
2017-04-10T02:16:54.863Z,0
2017-04-10T02:17:27.158Z,0
2017-04-10T02:17:59.482Z,0
2017-04-10T02:18:31.793Z,0
2017-04-10T02:19:04.102Z,0
2017-04-10T02:19:36.397Z,0
2017-04-10T02:20:08.696Z,0
2017-04-10T02:20:41.005Z,0
2017-04-10T02:21:13.310Z,0
2017-04-10T02:21:45.613Z,0
2017-04-10T02:22:17.926Z,0
2017-04-10T02:22:50.230Z,0
2017-04-10T02:23:22.531Z,0
2017-04-10T02:23:54.829Z,0
2017-04-10T02:24:27.137Z,0
2017-04-10T02:24:59.442Z,0
2017-04-10T02:25:31.744Z,0
2017-04-10T02:26:04.035Z,0
2017-04-10T02:26:36.342Z,0
2017-04-10T02:27:08.677Z,0
2017-04-10T02:27:40.983Z,0
2017-04-10T02:28:13.295Z,0
2017-04-10T02:28:45.606Z,0
2017-04-10T02:29:17.916Z,0
2017-04-10T02:29:50.207Z,0
2017-04-10T02:30:22.497Z,0
2017-04-10T02:30:54.790Z,0
2017-04-10T02:31:27.103Z,0
2017-04-10T02:31:59.413Z,0
2017-04-10T02:32:31.715Z,0
2017-04-10T02:33:04.015Z,0
2017-04-10T02:33:36.315Z,0
2017-04-10T02:34:08.613Z,0
2017-04-10T02:34:40.914Z,0
2017-04-10T02:35:13.237Z,0
2017-04-10T02:35:45.535Z,0
2017-04-10T02:36:17.840Z,0
2017-04-10T02:36:50.142Z,0
2017-04-10T02:37:22.439Z,0
2017-04-10T02:37:54.750Z,0
2017-04-10T02:38:27.056Z,0
2017-04-10T02:38:59.358Z,0
2017-04-10T02:39:31.664Z,0
2017-04-10T02:40:03.966Z,0
2017-04-10T02:40:36.276Z,0
2017-04-10T02:41:08.587Z,0
2017-04-10T02:41:40.904Z,0
2017-04-10T02:42:13.171Z,0
2017-04-10T02:42:45.416Z,0
2017-04-10T02:43:17.678Z,0
2017-04-10T02:43:49.937Z,0
2017-04-10T02:44:22.175Z,0
2017-04-10T02:44:54.411Z,0
2017-04-10T02:45:26.667Z,0
2017-04-10T02:45:58.930Z,0
2017-04-10T02:46:31.189Z,0
2017-04-10T02:47:03.461Z,0
2017-04-10T02:47:35.721Z,0
2017-04-10T02:48:07.968Z,0
2017-04-10T02:48:40.239Z,0
2017-04-10T02:49:12.499Z,0
2017-04-10T02:49:44.758Z,0
2017-04-10T02:50:16.999Z,0
2017-04-10T02:50:49.258Z,0
2017-04-10T02:51:21.507Z,0
2017-04-10T02:51:53.793Z,0
2017-04-10T02:52:26.084Z,0
2017-04-10T02:52:58.384Z,0
2017-04-10T02:53:30.663Z,0
2017-04-10T02:54:02.963Z,0
2017-04-10T02:54:35.279Z,0
2017-04-10T02:55:07.599Z,0
2017-04-10T02:55:39.898Z,0
2017-04-10T02:56:12.243Z,0
2017-04-10T02:56:44.540Z,0
2017-04-10T02:57:16.839Z,0
2017-04-10T02:57:49.134Z,0
2017-04-10T02:58:21.435Z,0
2017-04-10T02:58:53.736Z,0
2017-04-10T02:59:26.038Z,0
2017-04-10T02:59:58.341Z,0
2017-04-10T03:00:30.640Z,0
2017-04-10T03:01:02.968Z,0
2017-04-10T03:01:35.273Z,0
2017-04-10T03:02:07.570Z,0
2017-04-10T03:02:39.868Z,0
2017-04-10T03:03:12.174Z,0
2017-04-10T03:03:44.489Z,0
2017-04-10T03:04:16.777Z,0
2017-04-10T03:04:49.077Z,0
2017-04-10T03:05:21.386Z,0
2017-04-10T03:05:53.683Z,0
2017-04-10T03:06:25.999Z,0
2017-04-10T03:06:58.338Z,0
2017-04-10T03:07:30.647Z,0
2017-04-10T03:08:02.958Z,0
2017-04-10T03:08:35.274Z,0
2017-04-10T03:09:07.572Z,0
2017-04-10T03:09:39.883Z,0
2017-04-10T03:10:12.183Z,0
2017-04-10T03:10:44.474Z,0
2017-04-10T03:11:16.786Z,0
2017-04-10T03:11:49.081Z,0
2017-04-10T03:12:21.384Z,0
2017-04-10T03:12:53.687Z,0
2017-04-10T03:13:25.997Z,0
2017-04-10T03:13:58.295Z,0
2017-04-10T03:14:30.604Z,0
2017-04-10T03:15:02.915Z,0
2017-04-10T03:15:35.219Z,0
2017-04-10T03:16:07.520Z,0
2017-04-10T03:16:39.826Z,0
2017-04-10T03:17:12.136Z,0
2017-04-10T03:17:44.445Z,0
2017-04-10T03:18:16.751Z,0
2017-04-10T03:18:49.037Z,0
2017-04-10T03:19:21.339Z,0
2017-04-10T03:19:53.646Z,0
2017-04-10T03:20:25.983Z,0
2017-04-10T03:20:58.287Z,0
2017-04-10T03:21:30.587Z,0
2017-04-10T03:22:02.880Z,0
2017-04-10T03:22:35.180Z,0
2017-04-10T03:23:07.484Z,0
2017-04-10T03:23:39.786Z,0
2017-04-10T03:24:12.078Z,0
2017-04-10T03:24:44.377Z,0
2017-04-10T03:25:16.681Z,0
2017-04-10T03:25:48.990Z,0
2017-04-10T03:26:21.301Z,0
2017-04-10T03:26:53.611Z,0
2017-04-10T03:27:25.929Z,0
2017-04-10T03:27:58.237Z,0
2017-04-10T03:28:30.568Z,0
2017-04-10T03:29:02.880Z,0
2017-04-10T03:29:35.188Z,0
2017-04-10T03:30:07.496Z,0
2017-04-10T03:30:39.806Z,0
2017-04-10T03:31:12.108Z,0
2017-04-10T03:31:44.417Z,0
2017-04-10T03:32:16.719Z,0
2017-04-10T03:32:49.032Z,0
2017-04-10T03:33:21.348Z,0
2017-04-10T03:33:53.651Z,0
2017-04-10T03:34:25.942Z,0
2017-04-10T03:34:58.250Z,0
2017-04-10T03:35:30.553Z,0
2017-04-10T03:36:02.855Z,0
2017-04-10T03:36:35.172Z,0
2017-04-10T03:37:07.492Z,0
2017-04-10T03:37:39.802Z,0
2017-04-10T03:38:12.119Z,0
2017-04-10T03:38:44.430Z,0
2017-04-10T03:39:16.728Z,0
2017-04-10T03:39:49.041Z,0
2017-04-10T03:40:21.330Z,0
2017-04-10T03:40:53.625Z,0
2017-04-10T03:41:25.917Z,0
2017-04-10T03:41:58.211Z,0
2017-04-10T03:42:30.459Z,0
2017-04-10T03:43:02.711Z,0
2017-04-10T03:43:34.982Z,0
2017-04-10T03:44:07.220Z,0
2017-04-10T03:44:39.457Z,0
2017-04-10T03:45:11.742Z,0
2017-04-10T03:45:44.022Z,0
2017-04-10T03:46:16.309Z,0
2017-04-10T03:46:48.579Z,0
2017-04-10T03:47:20.839Z,0
2017-04-10T03:47:53.088Z,0
2017-04-10T03:48:26.269Z,0
2017-04-10T03:48:58.547Z,0
2017-04-10T03:49:30.797Z,0
2017-04-10T03:50:03.054Z,0
2017-04-10T03:50:35.306Z,0
2017-04-10T03:51:07.556Z,0
2017-04-10T03:51:39.811Z,0
2017-04-10T03:52:12.091Z,0
2017-04-10T03:52:44.420Z,0
2017-04-10T03:53:16.729Z,0
2017-04-10T03:53:49.048Z,0
2017-04-10T03:54:21.356Z,0
2017-04-10T03:54:53.647Z,0
2017-04-10T03:55:25.964Z,0
2017-04-10T03:55:58.271Z,0
2017-04-10T03:56:30.579Z,0
2017-04-10T03:57:02.884Z,0
2017-04-10T03:57:35.178Z,0
2017-04-10T03:58:07.484Z,0
2017-04-10T03:58:39.783Z,0
2017-04-10T03:59:12.107Z,0
2017-04-10T03:59:44.422Z,0
2017-04-10T04:00:16.732Z,0
2017-04-10T04:00:49.037Z,0
2017-04-10T04:01:21.353Z,0
2017-04-10T04:01:53.604Z,0
2017-04-10T04:02:26.608Z,0
2017-04-10T04:02:58.836Z,0
2017-04-10T04:03:31.085Z,0
2017-04-10T04:04:03.328Z,0
2017-04-10T04:04:35.593Z,0
2017-04-10T04:05:07.841Z,0
2017-04-10T04:05:40.104Z,0
2017-04-10T04:06:12.380Z,0
2017-04-10T04:06:44.625Z,0
2017-04-10T04:07:16.865Z,0
2017-04-10T04:07:49.112Z,0
2017-04-10T04:08:22.777Z,0
2017-04-10T04:08:55.048Z,0
2017-04-10T04:09:27.311Z,0
2017-04-10T04:09:59.556Z,0
2017-04-10T04:10:31.812Z,0
2017-04-10T04:11:04.810Z,0
2017-04-10T04:11:37.030Z,0
2017-04-10T04:12:10.196Z,0
2017-04-10T04:12:42.537Z,0
2017-04-10T04:13:14.806Z,0
2017-04-10T04:13:47.050Z,4
2017-04-10T04:14:19.295Z,4
2017-04-10T04:14:51.557Z,4
2017-04-10T04:15:23.810Z,0
2017-04-10T04:15:56.066Z,0
2017-04-10T04:16:28.321Z,0
2017-04-10T04:17:01.259Z,4
2017-04-10T04:17:34.814Z,4
2017-04-10T04:18:07.052Z,4
2017-04-10T04:18:39.295Z,0
2017-04-10T04:19:11.554Z,4
2017-04-10T04:19:43.837Z,4
2017-04-10T04:20:16.106Z,4
2017-04-10T04:20:48.363Z,4
2017-04-10T04:21:20.613Z,4
2017-04-10T04:21:52.913Z,4
2017-04-10T04:22:25.222Z,8
2017-04-10T04:22:57.521Z,4
2017-04-10T04:23:29.825Z,8
2017-04-10T04:24:02.119Z,8
2017-04-10T04:24:34.416Z,8
2017-04-10T04:25:06.725Z,8
2017-04-10T04:25:39.036Z,8
2017-04-10T04:26:11.356Z,12
2017-04-10T04:26:43.654Z,12
2017-04-10T04:27:15.964Z,12
2017-04-10T04:27:48.277Z,12
2017-04-10T04:28:20.586Z,12
2017-04-10T04:28:52.894Z,16
2017-04-10T04:29:25.199Z,16
2017-04-10T04:29:57.499Z,16
2017-04-10T04:30:29.814Z,20
2017-04-10T04:31:02.120Z,20
2017-04-10T04:31:34.427Z,24
2017-04-10T04:32:06.737Z,24
2017-04-10T04:32:39.032Z,28
2017-04-10T04:33:11.322Z,32
2017-04-10T04:33:43.622Z,32
2017-04-10T04:34:15.914Z,36
2017-04-10T04:34:48.223Z,36
2017-04-10T04:35:20.517Z,40
2017-04-10T04:35:52.817Z,40
2017-04-10T04:36:25.141Z,44
2017-04-10T04:36:57.444Z,44
2017-04-10T04:37:29.742Z,52
2017-04-10T04:38:02.073Z,52
2017-04-10T04:38:34.371Z,56
2017-04-10T04:39:06.673Z,56
2017-04-10T04:39:38.968Z,60
2017-04-10T04:40:11.261Z,64
2017-04-10T04:40:43.558Z,68
2017-04-10T04:41:15.857Z,72
2017-04-10T04:41:48.172Z,76
2017-04-10T04:42:20.507Z,80
2017-04-10T04:42:52.808Z,80
2017-04-10T04:43:25.126Z,88
2017-04-10T04:43:57.433Z,92
2017-04-10T04:44:29.739Z,96
2017-04-10T04:45:02.027Z,100
2017-04-10T04:45:34.325Z,100
2017-04-10T04:46:06.624Z,108
2017-04-10T04:46:38.923Z,112
2017-04-10T04:47:11.228Z,112
2017-04-10T04:47:43.514Z,120
2017-04-10T04:48:15.810Z,124
2017-04-10T04:48:48.105Z,128
2017-04-10T04:49:20.407Z,132
2017-04-10T04:49:52.682Z,136
2017-04-10T04:50:24.976Z,144
2017-04-10T04:50:57.280Z,148
2017-04-10T04:51:29.592Z,152
2017-04-10T04:52:01.899Z,160
2017-04-10T04:52:34.189Z,164
2017-04-10T04:53:06.477Z,172
2017-04-10T04:53:38.759Z,176
2017-04-10T04:54:11.076Z,180
2017-04-10T04:54:43.420Z,188
2017-04-10T04:55:15.753Z,192
2017-04-10T04:55:48.064Z,196
2017-04-10T04:56:20.408Z,208
2017-04-10T04:56:52.741Z,212
2017-04-10T04:57:25.032Z,216
2017-04-10T04:57:57.325Z,224
2017-04-10T04:58:29.611Z,232
2017-04-10T04:59:01.900Z,236
2017-04-10T04:59:34.198Z,244
2017-04-10T05:00:06.508Z,248
2017-04-10T05:00:38.815Z,256
2017-04-10T05:01:11.116Z,260
2017-04-10T05:01:43.418Z,264
2017-04-10T05:02:15.716Z,272
2017-04-10T05:02:48.003Z,280
2017-04-10T05:03:20.312Z,280
2017-04-10T05:03:52.598Z,288
2017-04-10T05:04:24.937Z,292
2017-04-10T05:04:57.239Z,296
2017-04-10T05:05:29.542Z,304
2017-04-10T05:06:01.824Z,308
2017-04-10T05:06:34.138Z,312
2017-04-10T05:07:06.433Z,320
2017-04-10T05:07:38.729Z,328
2017-04-10T05:08:11.032Z,336
2017-04-10T05:08:43.332Z,344
2017-04-10T05:09:15.633Z,348
2017-04-10T05:09:47.918Z,356
2017-04-10T05:10:20.222Z,364
2017-04-10T05:10:52.527Z,376
2017-04-10T05:11:24.868Z,384
2017-04-10T05:11:57.168Z,392
2017-04-10T05:12:29.510Z,400
2017-04-10T05:13:01.806Z,400
2017-04-10T05:13:34.121Z,404
2017-04-10T05:14:06.437Z,408
2017-04-10T05:14:38.737Z,404
2017-04-10T05:15:11.035Z,408
2017-04-10T05:15:43.339Z,412
2017-04-10T05:16:15.649Z,416
2017-04-10T05:16:47.966Z,420
2017-04-10T05:17:20.275Z,424
2017-04-10T05:17:52.572Z,432
2017-04-10T05:18:24.874Z,444
2017-04-10T05:18:57.155Z,452
2017-04-10T05:19:29.454Z,464
2017-04-10T05:20:01.741Z,472
2017-04-10T05:20:34.038Z,480
2017-04-10T05:21:06.331Z,488
2017-04-10T05:21:38.635Z,500
2017-04-10T05:22:10.953Z,508
2017-04-10T05:22:43.207Z,520
2017-04-10T05:23:15.453Z,524
2017-04-10T05:23:47.703Z,528
2017-04-10T05:24:19.951Z,532
2017-04-10T05:24:52.218Z,536
2017-04-10T05:25:25.278Z,544
2017-04-10T05:25:57.515Z,548
2017-04-10T05:26:29.757Z,544
2017-04-10T05:27:02.058Z,536
2017-04-10T05:27:34.328Z,528
2017-04-10T05:28:06.591Z,520
2017-04-10T05:28:39.772Z,524
2017-04-10T05:29:12.130Z,524
2017-04-10T05:29:44.359Z,528
2017-04-10T05:30:16.702Z,528
2017-04-10T05:30:48.946Z,536
2017-04-10T05:31:21.215Z,536
2017-04-10T05:31:53.497Z,540
2017-04-10T05:32:25.813Z,548
2017-04-10T05:32:58.125Z,548
2017-04-10T05:33:30.418Z,556
2017-04-10T05:34:02.735Z,556
2017-04-10T05:34:35.032Z,560
2017-04-10T05:35:07.335Z,568
2017-04-10T05:35:39.633Z,572
2017-04-10T05:36:11.932Z,580
2017-04-10T05:36:44.267Z,588
2017-04-10T05:37:16.600Z,600
2017-04-10T05:37:48.899Z,608
2017-04-10T05:38:21.202Z,620
2017-04-10T05:38:53.515Z,632
2017-04-10T05:39:25.818Z,640
2017-04-10T05:39:58.142Z,652
2017-04-10T05:40:30.446Z,664
2017-04-10T05:41:02.786Z,672
2017-04-10T05:41:35.102Z,684
2017-04-10T05:42:07.409Z,696
2017-04-10T05:42:39.713Z,712
2017-04-10T05:43:12.062Z,732
2017-04-10T05:43:44.368Z,756
2017-04-10T05:44:16.671Z,784
2017-04-10T05:44:48.974Z,812
2017-04-10T05:45:21.263Z,844
2017-04-10T05:45:53.560Z,864
2017-04-10T05:46:25.859Z,868
2017-04-10T05:46:58.228Z,864
2017-04-10T05:47:30.543Z,856
2017-04-10T05:48:02.860Z,868
2017-04-10T05:48:35.201Z,884
2017-04-10T05:49:07.507Z,896
2017-04-10T05:49:39.799Z,884
2017-04-10T05:50:12.104Z,868
2017-04-10T05:50:44.397Z,860
2017-04-10T05:51:16.682Z,860
2017-04-10T05:51:48.975Z,864
2017-04-10T05:52:21.826Z,880
2017-04-10T05:52:54.105Z,888
2017-04-10T05:53:27.249Z,900
2017-04-10T05:53:59.502Z,908
2017-04-10T05:54:31.731Z,912
2017-04-10T05:55:04.039Z,924
2017-04-10T05:55:36.310Z,936
2017-04-10T05:56:08.563Z,952
2017-04-10T05:56:40.841Z,940
2017-04-10T05:57:13.221Z,936
2017-04-10T05:57:46.152Z,936
2017-04-10T05:58:18.396Z,948
2017-04-10T05:58:50.669Z,960
2017-04-10T05:59:22.912Z,976
2017-04-10T05:59:55.151Z,1004
2017-04-10T06:00:28.308Z,1028
2017-04-10T06:01:00.546Z,1052
2017-04-10T06:01:32.812Z,1064
2017-04-10T06:02:05.110Z,1076
2017-04-10T06:02:37.398Z,1072
2017-04-10T06:03:09.745Z,1072
2017-04-10T06:03:42.945Z,1092
2017-04-10T06:04:15.193Z,1088
2017-04-10T06:04:47.438Z,1080
2017-04-10T06:05:19.682Z,1048
2017-04-10T06:05:51.929Z,1040
2017-04-10T06:06:24.168Z,1040
2017-04-10T06:06:56.420Z,1044
2017-04-10T06:07:28.719Z,1052
2017-04-10T06:08:00.959Z,1056
2017-04-10T06:08:33.213Z,1064
2017-04-10T06:09:05.466Z,1072
2017-04-10T06:09:37.719Z,1084
2017-04-10T06:10:10.108Z,1092
2017-04-10T06:10:42.432Z,1056
2017-04-10T06:11:14.686Z,1028
2017-04-10T06:11:47.073Z,1024
2017-04-10T06:12:19.309Z,1020
2017-04-10T06:12:51.557Z,1020
2017-04-10T06:13:23.816Z,1020
2017-04-10T06:13:56.079Z,1032
2017-04-10T06:14:28.333Z,1044
2017-04-10T06:15:00.684Z,1056
2017-04-10T06:15:32.935Z,1076
2017-04-10T06:16:05.189Z,1100
2017-04-10T06:16:37.446Z,1116
2017-04-10T06:17:09.684Z,1120
2017-04-10T06:17:41.937Z,1136
2017-04-10T06:18:14.167Z,1168
2017-04-10T06:18:46.413Z,1204
2017-04-10T06:19:18.721Z,1244
2017-04-10T06:19:50.975Z,1288
2017-04-10T06:20:23.217Z,1324
2017-04-10T06:20:55.468Z,1348
2017-04-10T06:21:27.722Z,1352
2017-04-10T06:21:59.951Z,1328
2017-04-10T06:22:32.221Z,1288
2017-04-10T06:23:04.481Z,1256
2017-04-10T06:23:36.722Z,1248
2017-04-10T06:24:08.967Z,1232
2017-04-10T06:24:41.238Z,1220
2017-04-10T06:25:13.471Z,1216
2017-04-10T06:25:45.724Z,1208
2017-04-10T06:26:18.048Z,1208
2017-04-10T06:26:50.322Z,1204
2017-04-10T06:27:22.567Z,1196
2017-04-10T06:27:54.808Z,1184
2017-04-10T06:28:27.066Z,1188
2017-04-10T06:28:59.326Z,1184
2017-04-10T06:29:32.343Z,1188
2017-04-10T06:30:04.606Z,1192
2017-04-10T06:30:36.954Z,1188
2017-04-10T06:31:09.215Z,1196
2017-04-10T06:31:41.459Z,1200
2017-04-10T06:32:13.755Z,1204
2017-04-10T06:32:46.049Z,1208
2017-04-10T06:33:18.344Z,1220
2017-04-10T06:33:50.641Z,1228
2017-04-10T06:34:22.935Z,1244
2017-04-10T06:34:55.227Z,1268
2017-04-10T06:35:27.517Z,1304
2017-04-10T06:35:59.822Z,1352
2017-04-10T06:36:32.121Z,1392
2017-04-10T06:37:04.430Z,1416
2017-04-10T06:37:37.749Z,1416
2017-04-10T06:38:13.369Z,1356
2017-04-10T06:38:45.827Z,1324
2017-04-10T06:39:18.475Z,1296
2017-04-10T06:39:51.651Z,1264
2017-04-10T06:40:24.866Z,1248
2017-04-10T06:42:16.919Z,1160
2017-04-10T06:42:49.159Z,1132
2017-04-10T06:43:21.417Z,1120
2017-04-10T06:43:54.222Z,1112
2017-04-10T06:44:26.479Z,1112
2017-04-10T06:44:58.719Z,1108
2017-04-10T06:45:31.707Z,1092
2017-04-10T06:46:03.957Z,1056
2017-04-10T06:46:36.237Z,1032
2017-04-10T06:47:08.503Z,1008
2017-04-10T06:47:41.908Z,976
2017-04-10T06:48:16.345Z,952
2017-04-10T06:48:48.601Z,948
2017-04-10T06:49:21.681Z,964
2017-04-10T06:49:53.934Z,972
2017-04-10T06:50:26.204Z,992
2017-04-10T06:50:59.332Z,1052
2017-04-10T06:51:31.581Z,1108
2017-04-10T06:52:03.880Z,1136
2017-04-10T06:52:36.174Z,1168
2017-04-10T06:53:08.475Z,1180
2017-04-10T06:53:40.778Z,1152
2017-04-10T06:54:13.073Z,1084
2017-04-10T06:54:46.064Z,1044
2017-04-10T06:57:58.268Z,1124
2017-04-10T06:58:31.274Z,1120
2017-04-10T06:59:03.777Z,1140
2017-04-10T07:00:55.949Z,1344
2017-04-10T07:01:28.531Z,1412
2017-04-10T07:02:00.816Z,1460
2017-04-10T07:02:33.109Z,1480
2017-04-10T07:03:05.411Z,1492
2017-04-10T07:03:37.725Z,1520
2017-04-10T07:04:10.031Z,1544
2017-04-10T07:04:42.339Z,1588
2017-04-10T07:05:14.642Z,1624
2017-04-10T07:05:46.943Z,1664
2017-04-10T07:06:19.257Z,1708
2017-04-10T07:06:51.563Z,1784
2017-04-10T07:07:23.883Z,1844
2017-04-10T07:07:56.182Z,1880
2017-04-10T07:08:28.461Z,1920
2017-04-10T07:09:00.752Z,1948
2017-04-10T07:09:33.034Z,1988
2017-04-10T07:10:05.303Z,2044
2017-04-10T07:10:37.824Z,2192
2017-04-10T07:11:10.684Z,2696
2017-04-10T07:11:43.711Z,2156
2017-04-10T07:12:16.018Z,2308
2017-04-10T07:12:48.348Z,2232
2017-04-10T07:13:20.654Z,3004
2017-04-10T07:13:52.962Z,3312
2017-04-10T07:14:25.268Z,3068
2017-04-10T07:14:57.569Z,3056
2017-04-10T07:15:29.861Z,2932
2017-04-10T07:16:02.164Z,2832
2017-04-10T07:16:34.474Z,2588
2017-04-10T07:17:06.787Z,2548
2017-04-10T07:17:39.088Z,2408
2017-04-10T07:18:11.387Z,2404
2017-04-10T07:18:43.686Z,2356
2017-04-10T07:19:15.987Z,2344
2017-04-10T07:19:48.295Z,2380
2017-04-10T07:20:20.596Z,2564
2017-04-10T07:20:52.889Z,2564
2017-04-10T07:21:25.198Z,2284
2017-04-10T07:21:57.491Z,2232
2017-04-10T07:22:30.689Z,2392
2017-04-10T07:23:02.937Z,2912
2017-04-10T07:23:35.202Z,2948
2017-04-10T07:24:08.347Z,2760
2017-04-10T07:24:40.599Z,2628
2017-04-10T07:25:12.891Z,2556
2017-04-10T07:25:45.154Z,2456
2017-04-10T07:26:17.414Z,2412
2017-04-10T07:26:49.665Z,2580
2017-04-10T07:27:21.914Z,2584
2017-04-10T07:27:54.169Z,2628
2017-04-10T07:28:26.414Z,2604
2017-04-10T07:28:58.684Z,2608
2017-04-10T07:29:30.953Z,2656
2017-04-10T07:30:03.191Z,2592
2017-04-10T07:30:35.566Z,2492
2017-04-10T07:31:07.809Z,2488
2017-04-10T07:31:40.056Z,2528
2017-04-10T07:32:12.344Z,2660
2017-04-10T07:32:44.648Z,2684
2017-04-10T07:33:16.941Z,2588
2017-04-10T07:33:49.244Z,2652
2017-04-10T07:34:21.555Z,2764
2017-04-10T07:34:53.861Z,2920
2017-04-10T07:35:26.168Z,3104
2017-04-10T07:35:58.459Z,2656
2017-04-10T07:36:30.773Z,3320
2017-04-10T07:37:03.079Z,3244
2017-04-10T07:37:35.384Z,2432
2017-04-10T07:38:07.684Z,2256
2017-04-10T07:38:39.972Z,2120
2017-04-10T07:39:12.266Z,2080
2017-04-10T07:39:44.579Z,2000
2017-04-10T07:40:16.881Z,1956
2017-04-10T07:40:49.172Z,1920
2017-04-10T07:41:21.472Z,1944
2017-04-10T07:41:53.764Z,1968
2017-04-10T07:42:26.056Z,2080
2017-04-10T07:42:58.344Z,2112
2017-04-10T07:43:30.639Z,2120
2017-04-10T07:44:02.948Z,2020
2017-04-10T07:44:35.228Z,1856
2017-04-10T07:45:07.529Z,1788
2017-04-10T07:45:39.833Z,1748
2017-04-10T07:46:12.134Z,1748